Terminal Aerodrome Forecast
Issued by NWS Kansas City/Pleasant Hill, MO

Home | Current Version | Previous Version | Graphics & Text | Print | Product List | Glossary On
Versions: 1 2 3 4 5 6 7 8 9 10 11 12 13 14 15 16
000
FTUS43 KEAX 251100
TAFMCI
TAF
KMCI 251136Z 2512/2612 31014G24KT P6SM SCT015 BKN025
     FM251400 33020G29KT P6SM VCSH OVC015
     FM252100 35015G25KT P6SM BKN030
     FM260000 35008KT P6SM SCT035=

USA.gov is the U.S. government's official web portal to all federal, state and local government web resources and services.